sensor_id;sensor_type;location;lat;lon;timestamp;pressure;altitude;pressure_sealevel;temperature;humidity
18014;BME280;9132;47.946;10.394;2023-11-21T00:00:40;93543.94;;;6.71;100.00
18014;BME280;9132;47.946;10.394;2023-11-21T00:03:08;93534.09;;;6.73;100.00
18014;BME280;9132;47.946;10.394;2023-11-21T00:05:36;93531.66;;;6.71;100.00
18014;BME280;9132;47.946;10.394;2023-11-21T00:08:03;93529.84;;;6.72;100.00
18014;BME280;9132;47.946;10.394;2023-11-21T00:10:30;93537.34;;;6.75;100.00
18014;BME280;9132;47.946;10.394;2023-11-21T00:12:57;93537.13;;;6.77;100.00
18014;BME280;9132;47.946;10.394;2023-11-21T00:15:23;93536.97;;;6.78;100.00
18014;BME280;9132;47.946;10.394;2023-11-21T00:17:50;93542.38;;;6.77;100.00
18014;BME280;9132;47.946;10.394;2023-11-21T00:20:18;93535.97;;;6.79;100.00
18014;BME280;9132;47.946;10.394;2023-11-21T00:22:46;93537.78;;;6.79;100.00
18014;BME280;9132;47.946;10.394;2023-11-21T00:25:13;93540.19;;;6.80;100.00
18014;BME280;9132;47.946;10.394;2023-11-21T00:27:41;93543.47;;;6.82;100.00
18014;BME280;9132;47.946;10.394;2023-11-21T00:30:08;93536.41;;;6.83;100.00
18014;BME280;9132;47.946;10.394;2023-11-21T00:32:36;93550.31;;;6.83;100.00
18014;BME280;9132;47.946;10.394;2023-11-21T00:35:05;93537.03;;;6.85;100.00
18014;BME280;9132;47.946;10.394;2023-11-21T00:37:33;93535.84;;;6.87;100.00
18014;BME280;9132;47.946;10.394;2023-11-21T00:40:01;93537.84;;;6.85;100.00
18014;BME280;9132;47.946;10.394;2023-11-21T00:42:30;93546.53;;;6.86;100.00
18014;BME280;9132;47.946;10.394;2023-11-21T00:44:58;93533.03;;;6.89;100.00
18014;BME280;9132;47.946;10.394;2023-11-21T00:47:25;93542.72;;;6.88;100.00
18014;BME280;9132;47.946;10.394;2023-11-21T00:49:54;93542.72;;;6.88;100.00
18014;BME280;9132;47.946;10.394;2023-11-21T00:52:20;93520.50;;;6.84;100.00
18014;BME280;9132;47.946;10.394;2023-11-21T00:54:49;93538.84;;;6.84;100.00
18014;BME280;9132;47.946;10.394;2023-11-21T00:57:16;93537.13;;;6.77;100.00
18014;BME280;9132;47.946;10.394;2023-11-21T00:59:43;93542.38;;;6.77;100.00
18014;BME280;9132;47.946;10.394;2023-11-21T01:02:09;93548.19;;;6.72;100.00
18014;BME280;9132;47.946;10.394;2023-11-21T01:04:36;93541.69;;;6.68;100.00
18014;BME280;9132;47.946;10.394;2023-11-21T01:07:03;93549.09;;;6.64;100.00
18014;BME280;9132;47.946;10.394;2023-11-21T01:09:30;93550.03;;;6.57;100.00
18014;BME280;9132;47.946;10.394;2023-11-21T01:11:59;93552.03;;;6.55;100.00
18014;BME280;9132;47.946;10.394;2023-11-21T01:14:26;93541.09;;;6.51;100.00
18014;BME280;9132;47.946;10.394;2023-11-21T01:16:53;93551.78;;;6.49;100.00
18014;BME280;9132;47.946;10.394;2023-11-21T01:19:19;93536.41;;;6.46;100.00
18014;BME280;9132;47.946;10.394;2023-11-21T01:21:46;93541.81;;;6.45;100.00
18014;BME280;9132;47.946;10.394;2023-11-21T01:24:12;93549.88;;;6.43;100.00
18014;BME280;9132;47.946;10.394;2023-11-21T01:26:39;93546.78;;;6.40;100.00
18014;BME280;9132;47.946;10.394;2023-11-21T01:29:07;93542.13;;;6.35;100.00
18014;BME280;9132;47.946;10.394;2023-11-21T01:31:34;93557.75;;;6.29;100.00
18014;BME280;9132;47.946;10.394;2023-11-21T01:34:00;93561.53;;;6.26;100.00
18014;BME280;9132;47.946;10.394;2023-11-21T01:36:30;93549.97;;;6.20;100.00
18014;BME280;9132;47.946;10.394;2023-11-21T01:38:58;93561.63;;;6.18;100.00
18014;BME280;9132;47.946;10.394;2023-11-21T01:41:26;93558.03;;;6.19;100.00
18014;BME280;9132;47.946;10.394;2023-11-21T01:43:54;93549.72;;;6.15;100.00
18014;BME280;9132;47.946;10.394;2023-11-21T01:46:22;93550.25;;;6.11;100.00
18014;BME280;9132;47.946;10.394;2023-11-21T01:48:49;93540.78;;;6.10;100.00
18014;BME280;9132;47.946;10.394;2023-11-21T01:51:16;93540.16;;;6.08;100.00
18014;BME280;9132;47.946;10.394;2023-11-21T01:53:44;93537.28;;;6.02;100.00
18014;BME280;9132;47.946;10.394;2023-11-21T01:56:12;93528.13;;;5.98;100.00
18014;BME280;9132;47.946;10.394;2023-11-21T01:58:39;93531.56;;;5.99;100.00
18014;BME280;9132;47.946;10.394;2023-11-21T02:01:07;93528.13;;;5.98;100.00
18014;BME280;9132;47.946;10.394;2023-11-21T02:03:36;93529.78;;;5.99;100.00
18014;BME280;9132;47.946;10.394;2023-11-21T02:06:04;93528.59;;;6.02;100.00
18014;BME280;9132;47.946;10.394;2023-11-21T02:08:33;93524.53;;;5.99;100.00
18014;BME280;9132;47.946;10.394;2023-11-21T02:10:59;93531.56;;;5.99;100.00
18014;BME280;9132;47.946;10.394;2023-11-21T02:13:27;93525.53;;;5.98;100.00
18014;BME280;9132;47.946;10.394;2023-11-21T02:15:54;93523.53;;;6.00;100.00
18014;BME280;9132;47.946;10.394;2023-11-21T02:18:21;93525.34;;;6.00;100.00
18014;BME280;9132;47.946;10.394;2023-11-21T02:20:49;93527.97;;;6.00;100.00
18014;BME280;9132;47.946;10.394;2023-11-21T02:23:17;93525.53;;;5.98;100.00
18014;BME280;9132;47.946;10.394;2023-11-21T02:25:45;93525.34;;;6.00;100.00
18014;BME280;9132;47.946;10.394;2023-11-21T02:28:13;93521.72;;;6.01;100.00
18014;BME280;9132;47.946;10.394;2023-11-21T02:30:41;93515.41;;;5.95;100.00
18014;BME280;9132;47.946;10.394;2023-11-21T02:33:08;93519.91;;;6.01;100.00
18014;BME280;9132;47.946;10.394;2023-11-21T02:35:35;93524.19;;;6.02;100.00
18014;BME280;9132;47.946;10.394;2023-11-21T02:38:03;93521.56;;;6.02;100.00
18014;BME280;9132;47.946;10.394;2023-11-21T02:40:31;93514.69;;;6.01;100.00
18014;BME280;9132;47.946;10.394;2023-11-21T02:42:57;93524.19;;;6.02;100.00
18014;BME280;9132;47.946;10.394;2023-11-21T02:45:24;93522.97;;;6.05;100.00
18014;BME280;9132;47.946;10.394;2023-11-21T02:47:51;93519.56;;;6.04;100.00
18014;BME280;9132;47.946;10.394;2023-11-21T02:50:21;93531.03;;;6.03;100.00
18014;BME280;9132;47.946;10.394;2023-11-21T02:52:48;93524.19;;;6.02;100.00
18014;BME280;9132;47.946;10.394;2023-11-21T02:55:15;93533.00;;;6.01;100.00
18014;BME280;9132;47.946;10.394;2023-11-21T02:57:43;93543.50;;;6.01;100.00
18014;BME280;9132;47.946;10.394;2023-11-21T03:00:10;93548.09;;;5.99;100.00
18014;BME280;9132;47.946;10.394;2023-11-21T03:02:38;93543.41;;;5.95;100.00
18014;BME280;9132;47.946;10.394;2023-11-21T03:05:06;93558.63;;;5.91;100.00
18014;BME280;9132;47.946;10.394;2023-11-21T03:07:34;93544.00;;;5.82;100.00
18014;BME280;9132;47.946;10.394;2023-11-21T03:10:01;93545.72;;;5.75;100.00
18014;BME280;9132;47.946;10.394;2023-11-21T03:12:30;93522.69;;;5.70;100.00
18014;BME280;9132;47.946;10.394;2023-11-21T03:14:58;93536.97;;;5.68;100.00
18014;BME280;9132;47.946;10.394;2023-11-21T03:17:25;93530.44;;;5.64;100.00
18014;BME280;9132;47.946;10.394;2023-11-21T03:19:51;93533.06;;;5.64;100.00
18014;BME280;9132;47.946;10.394;2023-11-21T03:22:18;93532.25;;;5.63;100.00
18014;BME280;9132;47.946;10.394;2023-11-21T03:24:45;93532.44;;;5.62;100.00
18014;BME280;9132;47.946;10.394;2023-11-21T03:27:11;93536.03;;;5.61;100.00
18014;BME280;9132;47.946;10.394;2023-11-21T03:29:38;93537.22;;;5.58;100.00
18014;BME280;9132;47.946;10.394;2023-11-21T03:32:07;93526.75;;;5.58;100.00
18014;BME280;9132;47.946;10.394;2023-11-21T03:34:33;93534.13;;;5.54;100.00
18014;BME280;9132;47.946;10.394;2023-11-21T03:37:00;93529.59;;;5.48;100.00
18014;BME280;9132;47.946;10.394;2023-11-21T03:39:27;93542.06;;;5.46;100.00
18014;BME280;9132;47.946;10.394;2023-11-21T03:41:54;93546.38;;;5.39;100.00
18014;BME280;9132;47.946;10.394;2023-11-21T03:44:21;93540.88;;;5.34;100.00
18014;BME280;9132;47.946;10.394;2023-11-21T03:46:47;93534.38;;;5.30;100.00
18014;BME280;9132;47.946;10.394;2023-11-21T03:49:16;93530.09;;;5.29;100.00
18014;BME280;9132;47.946;10.394;2023-11-21T03:51:42;93522.63;;;5.26;100.00
18014;BME280;9132;47.946;10.394;2023-11-21T03:54:09;93522.47;;;5.27;100.00
18014;BME280;9132;47.946;10.394;2023-11-21T03:56:36;93525.22;;;5.26;100.00
18014;BME280;9132;47.946;10.394;2023-11-21T03:59:02;93523.63;;;5.25;100.00
18014;BME280;9132;47.946;10.394;2023-11-21T04:01:29;93528.19;;;5.23;100.00
18014;BME280;9132;47.946;10.394;2023-11-21T04:03:55;93537.69;;;5.24;100.00
18014;BME280;9132;47.946;10.394;2023-11-21T04:06:24;93533.06;;;5.26;100.00
18014;BME280;9132;47.946;10.394;2023-11-21T04:08:50;93532.91;;;5.27;100.00
18014;BME280;9132;47.946;10.394;2023-11-21T04:11:17;93540.31;;;5.24;100.00
18014;BME280;9132;47.946;10.394;2023-11-21T04:13:43;93532.00;;;5.20;100.00
18014;BME280;9132;47.946;10.394;2023-11-21T04:16:12;93553.63;;;5.14;100.00
18014;BME280;9132;47.946;10.394;2023-11-21T04:18:39;93538.88;;;4.98;100.00
18014;BME280;9132;47.946;10.394;2023-11-21T04:21:06;93540.84;;;4.96;100.00
18014;BME280;9132;47.946;10.394;2023-11-21T04:23:35;93544.16;;;4.90;100.00
18014;BME280;9132;47.946;10.394;2023-11-21T04:26:02;93543.22;;;4.83;100.00
18014;BME280;9132;47.946;10.394;2023-11-21T04:28:28;93546.66;;;4.83;100.00
18014;BME280;9132;47.946;10.394;2023-11-21T04:30:55;93569.88;;;4.78;100.00
18014;BME280;9132;47.946;10.394;2023-11-21T04:33:22;93546.69;;;4.75;100.00
18014;BME280;9132;47.946;10.394;2023-11-21T04:35:51;93551.28;;;4.73;100.00
18014;BME280;9132;47.946;10.394;2023-11-21T04:38:18;93553.41;;;4.70;100.00
18014;BME280;9132;47.946;10.394;2023-11-21T04:40:46;93552.94;;;4.66;100.00
18014;BME280;9132;47.946;10.394;2023-11-21T04:43:13;93556.56;;;4.65;100.00
18014;BME280;9132;47.946;10.394;2023-11-21T04:45:39;93551.84;;;4.60;100.00
18014;BME280;9132;47.946;10.394;2023-11-21T04:48:06;93554.97;;;4.56;100.00
18014;BME280;9132;47.946;10.394;2023-11-21T04:50:33;93553.34;;;4.55;100.00
18014;BME280;9132;47.946;10.394;2023-11-21T04:53:00;93552.81;;;4.59;100.00
18014;BME280;9132;47.946;10.394;2023-11-21T04:55:26;93557.44;;;4.57;100.00
18014;BME280;9132;47.946;10.394;2023-11-21T04:57:55;93551.22;;;4.58;100.00
18014;BME280;9132;47.946;10.394;2023-11-21T05:00:21;93536.56;;;4.49;100.00
18014;BME280;9132;47.946;10.394;2023-11-21T05:02:49;93553.97;;;4.57;100.00
18014;BME280;9132;47.946;10.394;2023-11-21T05:05:15;93555.78;;;4.56;100.00
18014;BME280;9132;47.946;10.394;2023-11-21T05:07:42;93551.38;;;4.57;100.00
18014;BME280;9132;47.946;10.394;2023-11-21T05:10:09;93547.59;;;4.59;100.00
18014;BME280;9132;47.946;10.394;2023-11-21T05:12:37;93542.56;;;4.58;100.00
18014;BME280;9132;47.946;10.394;2023-11-21T05:15:09;93538.31;;;4.57;100.00
18014;BME280;9132;47.946;10.394;2023-11-21T05:17:42;93538.97;;;4.59;100.00
18014;BME280;9132;47.946;10.394;2023-11-21T05:20:10;93528.50;;;4.59;100.00
18014;BME280;9132;47.946;10.394;2023-11-21T05:22:37;93539.94;;;4.58;100.00
18014;BME280;9132;47.946;10.394;2023-11-21T05:25:05;93534.72;;;4.58;100.00
18014;BME280;9132;47.946;10.394;2023-11-21T05:27:33;93545.97;;;4.58;100.00
18014;BME280;9132;47.946;10.394;2023-11-21T05:30:01;93542.72;;;4.56;100.00
18014;BME280;9132;47.946;10.394;2023-11-21T05:32:28;93545.63;;;4.61;100.00
18014;BME280;9132;47.946;10.394;2023-11-21T05:34:55;93546.78;;;4.59;100.00
18014;BME280;9132;47.946;10.394;2023-11-21T05:37:24;93548.41;;;4.60;100.00
18014;BME280;9132;47.946;10.394;2023-11-21T05:39:52;93538.78;;;4.60;100.00
18014;BME280;9132;47.946;10.394;2023-11-21T05:42:20;93545.00;;;4.59;100.00
18014;BME280;9132;47.946;10.394;2023-11-21T05:44:47;93543.03;;;4.61;100.00
18014;BME280;9132;47.946;10.394;2023-11-21T05:47:13;93549.88;;;4.62;100.00
18014;BME280;9132;47.946;10.394;2023-11-21T05:49:41;93546.28;;;4.63;100.00
18014;BME280;9132;47.946;10.394;2023-11-21T05:52:10;93545.94;;;4.67;100.00
18014;BME280;9132;47.946;10.394;2023-11-21T05:54:37;93562.25;;;4.69;100.00
18014;BME280;9132;47.946;10.394;2023-11-21T05:57:04;93560.63;;;4.68;100.00
18014;BME280;9132;47.946;10.394;2023-11-21T05:59:30;93555.06;;;4.71;100.00
18014;BME280;9132;47.946;10.394;2023-11-21T06:01:57;93556.53;;;4.73;100.00
18014;BME280;9132;47.946;10.394;2023-11-21T06:04:24;93561.88;;;4.80;100.00
18014;BME280;9132;47.946;10.394;2023-11-21T06:06:52;93563.66;;;4.79;100.00
18014;BME280;9132;47.946;10.394;2023-11-21T06:09:19;93567.56;;;4.83;100.00
18014;BME280;9132;47.946;10.394;2023-11-21T06:11:46;93572.25;;;4.88;100.00
18014;BME280;9132;47.946;10.394;2023-11-21T06:14:13;93577.13;;;4.91;100.00
18014;BME280;9132;47.946;10.394;2023-11-21T06:16:40;93579.59;;;4.93;100.00
18014;BME280;9132;47.946;10.394;2023-11-21T06:19:06;93582.81;;;4.95;100.00
18014;BME280;9132;47.946;10.394;2023-11-21T06:21:33;93581.03;;;4.95;100.00
18014;BME280;9132;47.946;10.394;2023-11-21T06:24:02;93585.94;;;4.98;100.00
18014;BME280;9132;47.946;10.394;2023-11-21T06:26:29;93584.75;;;5.01;100.00
18014;BME280;9132;47.946;10.394;2023-11-21T06:28:57;93583.31;;;4.98;100.00
18014;BME280;9132;47.946;10.394;2023-11-21T06:31:23;93584.59;;;5.02;100.00
18014;BME280;9132;47.946;10.394;2023-11-21T06:33:51;93590.28;;;5.06;100.00
18014;BME280;9132;47.946;10.394;2023-11-21T06:36:18;93584.22;;;5.05;100.00
18014;BME280;9132;47.946;10.394;2023-11-21T06:38:44;93577.56;;;5.03;100.00
18014;BME280;9132;47.946;10.394;2023-11-21T06:41:13;93585.38;;;5.03;100.00
18014;BME280;9132;47.946;10.394;2023-11-21T06:43:41;93595.84;;;5.03;100.00
18014;BME280;9132;47.946;10.394;2023-11-21T06:46:10;93590.28;;;5.06;100.00
18014;BME280;9132;47.946;10.394;2023-11-21T06:48:37;93595.03;;;5.02;100.00
18014;BME280;9132;47.946;10.394;2023-11-21T06:51:04;93596.31;;;5.06;100.00
18014;BME280;9132;47.946;10.394;2023-11-21T06:53:30;93593.88;;;5.05;100.00
18014;BME280;9132;47.946;10.394;2023-11-21T06:55:57;93611.00;;;5.07;100.00
18014;BME280;9132;47.946;10.394;2023-11-21T06:58:25;93607.41;;;5.08;100.00
18014;BME280;9132;47.946;10.394;2023-11-21T07:00:51;93608.22;;;5.09;100.00
18014;BME280;9132;47.946;10.394;2023-11-21T07:03:18;93606.25;;;5.11;100.00
18014;BME280;9132;47.946;10.394;2023-11-21T07:05:45;93610.50;;;5.12;100.00
18014;BME280;9132;47.946;10.394;2023-11-21T07:08:12;93614.91;;;5.11;100.00
18014;BME280;9132;47.946;10.394;2023-11-21T07:10:38;93610.16;;;5.15;100.00
18014;BME280;9132;47.946;10.394;2023-11-21T07:13:06;93603.16;;;5.07;100.00
18014;BME280;9132;47.946;10.394;2023-11-21T07:15:39;93615.03;;;5.18;100.00
18014;BME280;9132;47.946;10.394;2023-11-21T07:18:05;93612.22;;;5.20;100.00
18014;BME280;9132;47.946;10.394;2023-11-21T07:20:33;93609.25;;;5.23;100.00
18014;BME280;9132;47.946;10.394;2023-11-21T07:23:00;93611.06;;;5.22;100.00
18014;BME280;9132;47.946;10.394;2023-11-21T07:25:28;93613.53;;;5.24;100.00
18014;BME280;9132;47.946;10.394;2023-11-21T07:27:55;93614.16;;;5.26;100.00
18014;BME280;9132;47.946;10.394;2023-11-21T07:30:21;93614.97;;;5.26;100.00
18014;BME280;9132;47.946;10.394;2023-11-21T07:32:50;93616.16;;;5.24;100.00
18014;BME280;9132;47.946;10.394;2023-11-21T07:35:16;93619.09;;;5.21;100.00
18014;BME280;9132;47.946;10.394;2023-11-21T07:37:43;93629.84;;;5.26;100.00
18014;BME280;9132;47.946;10.394;2023-11-21T07:40:11;93624.00;;;5.24;100.00
18014;BME280;9132;47.946;10.394;2023-11-21T07:42:38;93634.91;;;5.27;100.00
18014;BME280;9132;47.946;10.394;2023-11-21T07:45:08;93635.72;;;5.28;100.00
18014;BME280;9132;47.946;10.394;2023-11-21T07:47:34;93640.75;;;5.29;100.00
18014;BME280;9132;47.946;10.394;2023-11-21T07:50:04;93631.13;;;5.30;100.00
18014;BME280;9132;47.946;10.394;2023-11-21T07:52:32;93633.41;;;5.33;100.00
18014;BME280;9132;47.946;10.394;2023-11-21T07:54:59;93631.75;;;5.32;100.00
18014;BME280;9132;47.946;10.394;2023-11-21T07:57:26;93628.78;;;5.35;100.00
18014;BME280;9132;47.946;10.394;2023-11-21T07:59:53;93629.25;;;5.39;100.00
18014;BME280;9132;47.946;10.394;2023-11-21T08:02:20;93633.31;;;5.41;100.00
18014;BME280;9132;47.946;10.394;2023-11-21T08:04:47;93635.78;;;5.43;100.00
18014;BME280;9132;47.946;10.394;2023-11-21T08:07:16;93631.72;;;5.40;100.00
18014;BME280;9132;47.946;10.394;2023-11-21T08:09:42;93635.44;;;5.46;100.00
18014;BME280;9132;47.946;10.394;2023-11-21T08:12:09;93638.97;;;5.53;100.00
18014;BME280;9132;47.946;10.394;2023-11-21T08:14:36;93631.00;;;5.46;100.00
18014;BME280;9132;47.946;10.394;2023-11-21T08:17:04;93639.28;;;5.58;100.00
18014;BME280;9132;47.946;10.394;2023-11-21T08:19:30;93635.66;;;5.59;100.00
18014;BME280;9132;47.946;10.394;2023-11-21T08:21:58;93632.69;;;5.62;100.00
18014;BME280;9132;47.946;10.394;2023-11-21T08:24:26;93631.22;;;5.60;100.00
18014;BME280;9132;47.946;10.394;2023-11-21T08:26:52;93628.81;;;5.58;100.00
18014;BME280;9132;47.946;10.394;2023-11-21T08:29:19;93628.97;;;5.56;100.00
18014;BME280;9132;47.946;10.394;2023-11-21T08:31:46;93628.81;;;5.58;100.00
18014;BME280;9132;47.946;10.394;2023-11-21T08:34:13;93631.78;;;5.55;100.00
18014;BME280;9132;47.946;10.394;2023-11-21T08:36:41;93640.88;;;5.59;100.00
18014;BME280;9132;47.946;10.394;2023-11-21T08:39:08;93640.25;;;5.57;100.00
18014;BME280;9132;47.946;10.394;2023-11-21T08:41:36;93635.19;;;5.55;100.00
18014;BME280;9132;47.946;10.394;2023-11-21T08:44:03;93634.66;;;5.60;100.00
18014;BME280;9132;47.946;10.394;2023-11-21T08:46:32;93644.78;;;5.63;100.00
18014;BME280;9132;47.946;10.394;2023-11-21T08:48:59;93646.53;;;5.71;100.00
18014;BME280;9132;47.946;10.394;2023-11-21T08:51:26;93651.06;;;5.77;100.00
18014;BME280;9132;47.946;10.394;2023-11-21T08:53:52;93649.06;;;5.79;100.00
18014;BME280;9132;47.946;10.394;2023-11-21T08:56:19;93653.59;;;5.85;100.00
18014;BME280;9132;47.946;10.394;2023-11-21T08:58:47;93660.28;;;5.88;100.00
18014;BME280;9132;47.946;10.394;2023-11-21T09:01:15;93658.91;;;5.92;100.00
18014;BME280;9132;47.946;10.394;2023-11-21T09:03:42;93652.28;;;6.04;100.00
18014;BME280;9132;47.946;10.394;2023-11-21T09:06:09;93654.50;;;6.15;100.00
18014;BME280;9132;47.946;10.394;2023-11-21T09:08:35;93651.41;;;6.26;100.00
18014;BME280;9132;47.946;10.394;2023-11-21T09:11:03;93651.16;;;6.36;100.00
18014;BME280;9132;47.946;10.394;2023-11-21T09:13:29;93659.56;;;6.46;100.00
18014;BME280;9132;47.946;10.394;2023-11-21T09:15:57;93662.16;;;6.61;100.00
18014;BME280;9132;47.946;10.394;2023-11-21T09:18:23;93657.94;;;6.75;100.00
18014;BME280;9132;47.946;10.394;2023-11-21T09:20:50;93663.69;;;6.85;100.00
18014;BME280;9132;47.946;10.394;2023-11-21T09:23:16;93669.22;;;6.90;100.00
18014;BME280;9132;47.946;10.394;2023-11-21T09:25:43;93673.63;;;6.90;100.00
18014;BME280;9132;47.946;10.394;2023-11-21T09:28:11;93671.66;;;6.77;100.00
18014;BME280;9132;47.946;10.394;2023-11-21T09:30:38;93672.22;;;6.72;100.00
18014;BME280;9132;47.946;10.394;2023-11-21T09:33:05;93675.19;;;6.69;100.00
18014;BME280;9132;47.946;10.394;2023-11-21T09:35:35;93674.38;;;6.69;100.00
18014;BME280;9132;47.946;10.394;2023-11-21T09:38:03;93672.22;;;6.72;100.00
18014;BME280;9132;47.946;10.394;2023-11-21T09:40:31;93670.47;;;6.65;100.00
18014;BME280;9132;47.946;10.394;2023-11-21T09:42:58;93669.13;;;6.69;100.00
18014;BME280;9132;47.946;10.394;2023-11-21T09:45:26;93672.38;;;6.71;100.00
18014;BME280;9132;47.946;10.394;2023-11-21T09:47:53;93671.22;;;6.73;100.00
18014;BME280;9132;47.946;10.394;2023-11-21T09:50:23;93674.28;;;6.77;100.00
18014;BME280;9132;47.946;10.394;2023-11-21T09:52:55;93675.84;;;6.71;100.00
18014;BME280;9132;47.946;10.394;2023-11-21T09:55:26;93673.81;;;6.73;100.00
18014;BME280;9132;47.946;10.394;2023-11-21T09:57:54;93681.09;;;6.71;100.00
18014;BME280;9132;47.946;10.394;2023-11-21T10:00:22;93677.44;;;6.72;100.00
18014;BME280;9132;47.946;10.394;2023-11-21T10:02:49;93675.44;;;6.74;100.00
18014;BME280;9132;47.946;10.394;2023-11-21T10:05:18;93672.81;;;6.74;100.00
18014;BME280;9132;47.946;10.394;2023-11-21T10:07:49;93677.69;;;6.78;100.00
18014;BME280;9132;47.946;10.394;2023-11-21T10:10:18;93675.72;;;6.80;100.00
18014;BME280;9132;47.946;10.394;2023-11-21T10:12:49;93681.78;;;6.80;100.00
18014;BME280;9132;47.946;10.394;2023-11-21T10:15:21;93675.19;;;6.84;100.00
18014;BME280;9132;47.946;10.394;2023-11-21T10:17:49;93680.06;;;6.87;100.00
18014;BME280;9132;47.946;10.394;2023-11-21T10:20:19;93676.88;;;6.92;100.00
18014;BME280;9132;47.946;10.394;2023-11-21T10:22:45;93685.03;;;6.97;100.00
18014;BME280;9132;47.946;10.394;2023-11-21T10:25:13;93681.94;;;6.93;100.00
18014;BME280;9132;47.946;10.394;2023-11-21T10:27:41;93681.75;;;6.95;100.00
18014;BME280;9132;47.946;10.394;2023-11-21T10:30:09;93678.06;;;6.89;100.00
18014;BME280;9132;47.946;10.394;2023-11-21T10:32:37;93674.81;;;6.87;100.00
18014;BME280;9132;47.946;10.394;2023-11-21T10:35:06;93665.16;;;6.88;100.00
18014;BME280;9132;47.946;10.394;2023-11-21T10:37:35;93665.38;;;6.93;100.00
18014;BME280;9132;47.946;10.394;2023-11-21T10:40:02;93667.91;;;7.01;100.00
18014;BME280;9132;47.946;10.394;2023-11-21T10:42:31;93668.19;;;7.06;100.00
18014;BME280;9132;47.946;10.394;2023-11-21T10:44:58;93660.84;;;7.16;100.00
18014;BME280;9132;47.946;10.394;2023-11-21T10:47:25;93662.28;;;7.19;100.00
18014;BME280;9132;47.946;10.394;2023-11-21T10:49:52;93661.06;;;7.22;100.00
18014;BME280;9132;47.946;10.394;2023-11-21T10:52:19;93655.81;;;7.22;100.00
18014;BME280;9132;47.946;10.394;2023-11-21T10:54:46;93659.28;;;7.22;100.00
18014;BME280;9132;47.946;10.394;2023-11-21T10:57:17;93658.09;;;7.25;100.00
18014;BME280;9132;47.946;10.394;2023-11-21T10:59:47;93654.28;;;7.27;100.00
18014;BME280;9132;47.946;10.394;2023-11-21T11:02:22;93659.97;;;7.31;100.00
18014;BME280;9132;47.946;10.394;2023-11-21T11:04:52;93657.16;;;7.32;100.00
18014;BME280;9132;47.946;10.394;2023-11-21T11:07:19;93653.38;;;7.35;100.00
18014;BME280;9132;47.946;10.394;2023-11-21T11:09:47;93654.78;;;7.37;100.00
18014;BME280;9132;47.946;10.394;2023-11-21T11:12:14;93652.78;;;7.39;100.00
18014;BME280;9132;47.946;10.394;2023-11-21T11:14:42;93652.00;;;7.39;100.00
18014;BME280;9132;47.946;10.394;2023-11-21T11:17:12;93657.25;;;7.39;100.00
18014;BME280;9132;47.946;10.394;2023-11-21T11:19:40;93657.25;;;7.39;100.00
18014;BME280;9132;47.946;10.394;2023-11-21T11:22:15;93666.72;;;7.40;100.00
18014;BME280;9132;47.946;10.394;2023-11-21T11:25:02;93663.56;;;7.45;100.00
18014;BME280;9132;47.946;10.394;2023-11-21T11:27:46;93658.69;;;7.41;100.00
18014;BME280;9132;47.946;10.394;2023-11-21T11:30:26;93663.94;;;7.41;100.00
18014;BME280;9132;47.946;10.394;2023-11-21T11:33:04;93660.88;;;7.38;100.00
18014;BME280;9132;47.946;10.394;2023-11-21T11:35:41;93659.66;;;7.40;100.00
18014;BME280;9132;47.946;10.394;2023-11-21T11:38:12;93663.56;;;7.45;100.00
18014;BME280;9132;47.946;10.394;2023-11-21T11:40:39;93664.16;;;7.47;100.00
18014;BME280;9132;47.946;10.394;2023-11-21T11:43:07;93656.28;;;7.47;100.00
18014;BME280;9132;47.946;10.394;2023-11-21T11:45:34;93659.75;;;7.47;100.00
18014;BME280;9132;47.946;10.394;2023-11-21T11:48:08;93656.34;;;7.53;100.00
18014;BME280;9132;47.946;10.394;2023-11-21T11:50:42;93655.91;;;7.50;100.00
18014;BME280;9132;47.946;10.394;2023-11-21T11:53:17;93649.31;;;7.54;100.00
18014;BME280;9132;47.946;10.394;2023-11-21T11:55:44;93652.38;;;7.57;100.00
18014;BME280;9132;47.946;10.394;2023-11-21T11:58:11;93654.25;;;7.63;100.00
18014;BME280;9132;47.946;10.394;2023-11-21T12:00:37;93651.25;;;7.66;100.00
18014;BME280;9132;47.946;10.394;2023-11-21T12:03:07;93656.72;;;7.72;100.00
18014;BME280;9132;47.946;10.394;2023-11-21T12:05:35;93651.47;;;7.72;100.00
18014;BME280;9132;47.946;10.394;2023-11-21T12:08:05;93650.25;;;7.68;100.00
18014;BME280;9132;47.946;10.394;2023-11-21T12:10:34;93655.28;;;7.69;100.00
18014;BME280;9132;47.946;10.394;2023-11-21T12:13:02;93651.69;;;7.70;100.00
18014;BME280;9132;47.946;10.394;2023-11-21T12:15:30;93655.13;;;7.71;100.00
18014;BME280;9132;47.946;10.394;2023-11-21T12:17:57;93652.22;;;7.65;100.00
18014;BME280;9132;47.946;10.394;2023-11-21T12:20:25;93659.94;;;7.67;100.00
18014;BME280;9132;47.946;10.394;2023-11-21T12:22:54;93663.47;;;7.59;100.00
18014;BME280;9132;47.946;10.394;2023-11-21T12:25:22;93665.75;;;7.41;100.00
18014;BME280;9132;47.946;10.394;2023-11-21T12:27:50;93676.78;;;7.00;100.00
18014;BME280;9132;47.946;10.394;2023-11-21T12:30:18;93666.97;;;6.87;100.00
18014;BME280;9132;47.946;10.394;2023-11-21T12:32:48;93675.34;;;6.68;100.00
18014;BME280;9132;47.946;10.394;2023-11-21T12:35:15;93680.78;;;6.37;100.00
18014;BME280;9132;47.946;10.394;2023-11-21T12:37:45;93689.09;;;6.25;100.00
18014;BME280;9132;47.946;10.394;2023-11-21T12:40:14;93693.13;;;6.13;100.00
18014;BME280;9132;47.946;10.394;2023-11-21T12:42:43;93689.16;;;6.17;100.00
18014;BME280;9132;47.946;10.394;2023-11-21T12:45:18;93682.75;;;6.20;100.00
18014;BME280;9132;47.946;10.394;2023-11-21T12:47:47;93690.09;;;6.24;100.00
18014;BME280;9132;47.946;10.394;2023-11-21T12:50:14;93686.75;;;6.31;100.00
18014;BME280;9132;47.946;10.394;2023-11-21T12:52:45;93685.41;;;6.35;100.00
18014;BME280;9132;47.946;10.394;2023-11-21T12:55:15;93688.28;;;6.40;100.00
18014;BME280;9132;47.946;10.394;2023-11-21T12:57:43;93693.00;;;6.44;100.00
18014;BME280;9132;47.946;10.394;2023-11-21T13:00:12;93683.97;;;6.47;100.00
18014;BME280;9132;47.946;10.394;2023-11-21T13:02:52;93685.78;;;6.46;100.00